createdAt,value
2018-08-03T00:00:08.957Z,85.03
2018-08-03T00:02:38.117Z,85.09
2018-08-03T00:05:07.899Z,85.88
2018-08-03T00:07:36.821Z,85.53
2018-08-03T00:10:06.970Z,84.51
2018-08-03T00:12:36.105Z,84.57
2018-08-03T00:15:06.015Z,85.86
2018-08-03T00:17:35.293Z,85.53
2018-08-03T00:20:05.489Z,85.43
2018-08-03T00:22:34.677Z,85.50
2018-08-03T00:25:03.709Z,86.19
2018-08-03T00:27:32.668Z,85.83
2018-08-03T00:30:01.592Z,85.87
2018-08-03T00:32:30.537Z,86.25
2018-08-03T00:34:59.549Z,85.83
2018-08-03T00:37:28.492Z,85.19
2018-08-03T00:39:57.617Z,85.78
2018-08-03T00:42:26.604Z,85.21
2018-08-03T00:44:55.678Z,85.74
2018-08-03T00:47:24.589Z,86.00
2018-08-03T00:49:53.940Z,87.17
2018-08-03T00:52:22.929Z,87.08
2018-08-03T00:54:51.952Z,87.24
2018-08-03T00:57:20.948Z,86.92
2018-08-03T00:59:50.344Z,87.49
2018-08-03T01:02:19.525Z,88.60
2018-08-03T01:04:48.439Z,88.05
2018-08-03T01:07:17.447Z,88.37
2018-08-03T01:09:46.435Z,87.73
2018-08-03T01:12:15.389Z,89.07
2018-08-03T01:14:44.340Z,89.48
2018-08-03T01:17:13.327Z,89.88
2018-08-03T01:19:42.266Z,89.87
2018-08-03T01:22:11.223Z,89.55
2018-08-03T01:24:40.152Z,89.92
2018-08-03T01:27:09.091Z,90.73
2018-08-03T01:29:38.035Z,90.56
2018-08-03T01:32:06.995Z,91.37
2018-08-03T01:34:35.903Z,90.90
2018-08-03T01:37:04.957Z,90.95
2018-08-03T01:39:33.896Z,90.85
2018-08-03T01:42:02.833Z,90.38
2018-08-03T01:44:31.836Z,90.06
2018-08-03T01:47:00.774Z,90.18
2018-08-03T01:49:29.704Z,89.09
2018-08-03T01:51:58.717Z,89.64
2018-08-03T01:54:27.636Z,90.26
2018-08-03T01:56:56.598Z,90.33
2018-08-03T01:59:25.499Z,90.90
2018-08-03T02:01:54.406Z,90.43
2018-08-03T02:04:23.339Z,91.22
2018-08-03T02:06:52.258Z,91.77
2018-08-03T02:09:21.231Z,91.75
2018-08-03T02:11:50.188Z,92.03
2018-08-03T02:14:19.116Z,92.11
2018-08-03T02:16:48.032Z,91.95
2018-08-03T02:19:17.006Z,92.27
2018-08-03T02:21:45.930Z,92.03
2018-08-03T02:24:14.980Z,93.32
2018-08-03T02:26:43.895Z,91.44
2018-08-03T02:29:12.846Z,91.58
2018-08-03T02:31:41.785Z,91.03
2018-08-03T02:34:11.401Z,91.66
2018-08-03T02:36:40.404Z,91.10
2018-08-03T02:39:11.043Z,91.00
2018-08-03T02:41:40.227Z,90.81
2018-08-03T02:44:09.707Z,90.82
2018-08-03T02:49:06.791Z,90.56
2018-08-03T02:51:35.717Z,90.06
2018-08-03T02:54:04.669Z,90.96
2018-08-03T02:56:33.605Z,89.95
2018-08-03T02:59:02.548Z,90.81
2018-08-03T03:01:31.470Z,91.05
2018-08-03T03:04:00.401Z,91.24
2018-08-03T03:06:29.311Z,91.63
2018-08-03T03:08:58.239Z,91.19
2018-08-03T03:11:27.160Z,91.03
2018-08-03T03:13:56.101Z,90.57
2018-08-03T03:16:25.248Z,91.40
2018-08-03T03:18:54.197Z,90.20
2018-08-03T03:21:23.154Z,90.81
2018-08-03T03:23:52.070Z,90.86
2018-08-03T03:26:21.011Z,91.00
2018-08-03T03:28:49.932Z,91.21
2018-08-03T03:31:18.828Z,91.75
2018-08-03T03:33:47.893Z,92.07
2018-08-03T03:36:16.868Z,92.87
2018-08-03T03:38:45.820Z,92.78
2018-08-03T03:41:14.765Z,92.86
2018-08-03T03:43:43.766Z,92.87
2018-08-03T03:46:12.680Z,93.99
2018-08-03T03:48:41.619Z,93.11
2018-08-03T03:51:10.577Z,93.58
2018-08-03T03:53:39.562Z,92.59
2018-08-03T03:56:08.479Z,93.32
2018-08-03T03:58:37.452Z,93.65
2018-08-03T04:01:06.572Z,92.79
2018-08-03T04:03:35.519Z,92.47
2018-08-03T04:06:04.452Z,92.45
2018-08-03T04:08:33.368Z,92.41
2018-08-03T04:11:02.470Z,92.06
2018-08-03T04:13:31.403Z,91.64
2018-08-03T04:16:00.357Z,91.57
2018-08-03T04:18:29.284Z,90.81
2018-08-03T04:20:59.399Z,90.91
2018-08-03T04:23:28.849Z,91.32
2018-08-03T04:25:57.834Z,90.77
2018-08-03T04:28:26.824Z,90.68
2018-08-03T04:30:55.789Z,90.91
2018-08-03T04:33:24.717Z,92.37
2018-08-03T04:35:53.772Z,92.01
2018-08-03T04:38:22.713Z,90.89
2018-08-03T04:40:51.696Z,90.04
2018-08-03T04:43:20.639Z,90.67
2018-08-03T04:45:49.593Z,90.29
2018-08-03T04:48:18.548Z,89.59
2018-08-03T04:50:47.504Z,89.12
2018-08-03T04:53:16.401Z,88.65
2018-08-03T04:55:45.335Z,89.06
2018-08-03T04:58:14.321Z,87.55
2018-08-03T05:00:43.294Z,87.29
2018-08-03T05:03:12.207Z,86.06
2018-08-03T05:05:41.173Z,85.57
2018-08-03T05:08:10.184Z,85.37
2018-08-03T05:10:39.186Z,84.83
2018-08-03T05:13:08.175Z,84.46
2018-08-03T05:15:37.142Z,85.01
2018-08-03T05:18:06.440Z,83.25
2018-08-03T05:20:35.396Z,82.46
2018-08-03T05:23:04.338Z,83.04
2018-08-03T05:25:33.281Z,82.61
2018-08-03T05:28:02.481Z,80.87
2018-08-03T05:30:31.502Z,80.24
2018-08-03T05:33:00.550Z,81.09
2018-08-03T05:35:29.523Z,79.66
2018-08-03T05:37:58.454Z,81.50
2018-08-03T05:40:27.434Z,80.07
2018-08-03T05:42:56.392Z,79.78
2018-08-03T05:45:25.510Z,79.22
2018-08-03T05:47:54.511Z,78.32
2018-08-03T05:50:23.505Z,78.71
2018-08-03T05:52:52.507Z,77.03
2018-08-03T05:55:21.513Z,78.58
2018-08-03T05:57:50.468Z,78.57
2018-08-03T06:00:19.674Z,74.92
2018-08-03T06:02:48.795Z,73.60
2018-08-03T06:05:17.998Z,70.54
2018-08-03T06:07:46.926Z,66.65
2018-08-03T06:10:15.855Z,65.81
2018-08-03T06:12:44.791Z,64.06
2018-08-03T06:15:13.778Z,66.13
2018-08-03T06:17:42.765Z,63.94
2018-08-03T06:20:13.203Z,61.65
2018-08-03T06:22:42.495Z,59.70
2018-08-03T06:25:11.751Z,59.02
2018-08-03T06:27:40.666Z,59.81
2018-08-03T06:30:11.303Z,57.72
2018-08-03T06:32:40.241Z,54.35
2018-08-03T06:35:09.223Z,55.46
2018-08-03T06:37:38.156Z,55.26
2018-08-03T06:40:07.110Z,54.02
2018-08-03T06:42:36.047Z,54.74
2018-08-03T06:45:05.244Z,55.59
2018-08-03T06:47:34.165Z,55.58
2018-08-03T06:50:03.135Z,52.93
2018-08-03T06:52:32.059Z,53.98
2018-08-03T06:55:01.067Z,55.25
2018-08-03T06:57:30.066Z,55.61
2018-08-03T06:59:58.994Z,57.09
2018-08-03T07:02:28.007Z,58.66
2018-08-03T07:04:56.956Z,60.44
2018-08-03T07:07:25.982Z,59.92
2018-08-03T07:09:54.935Z,61.69
2018-08-03T07:12:23.937Z,63.13
2018-08-03T07:14:53.525Z,60.66
2018-08-03T07:17:22.432Z,57.86
2018-08-03T07:19:51.470Z,56.55
2018-08-03T07:22:20.494Z,56.41
2018-08-03T07:24:49.545Z,57.91
2018-08-03T07:27:18.491Z,59.76
2018-08-03T07:29:47.404Z,60.15
2018-08-03T07:32:16.312Z,61.65
2018-08-03T07:34:45.261Z,61.02
2018-08-03T07:37:14.206Z,59.82
2018-08-03T07:39:43.169Z,58.15
2018-08-03T07:42:12.093Z,56.60
2018-08-03T07:44:41.058Z,53.83
2018-08-03T07:47:10.383Z,54.19
2018-08-03T07:49:39.305Z,52.38
2018-08-03T07:52:08.454Z,51.78
2018-08-03T07:54:37.516Z,49.86
2018-08-03T07:57:06.574Z,49.91
2018-08-03T07:59:35.504Z,49.78
2018-08-03T08:02:04.461Z,47.12
2018-08-03T08:04:33.398Z,47.95
2018-08-03T08:07:02.336Z,46.92
2018-08-03T08:09:31.309Z,46.49
2018-08-03T08:12:00.230Z,47.36
2018-08-03T08:14:29.152Z,47.27
2018-08-03T08:16:58.249Z,48.08
2018-08-03T08:19:27.131Z,46.56
2018-08-03T08:21:56.066Z,49.96
2018-08-03T08:24:25.279Z,50.47
2018-08-03T08:26:54.394Z,51.04
2018-08-03T08:29:23.476Z,51.98
2018-08-03T08:31:52.431Z,52.85
2018-08-03T08:34:21.352Z,53.67
2018-08-03T08:36:50.445Z,52.16
2018-08-03T08:39:19.328Z,50.92
2018-08-03T08:41:48.269Z,50.01
2018-08-03T08:44:17.254Z,48.65
2018-08-03T08:46:46.213Z,47.19
2018-08-03T08:49:15.126Z,49.10
2018-08-03T08:51:44.074Z,48.54
2018-08-03T08:54:13.052Z,49.63
2018-08-03T08:56:42.004Z,49.49
2018-08-03T08:59:10.932Z,50.30
2018-08-03T09:01:39.881Z,49.57
2018-08-03T09:04:08.825Z,47.64
2018-08-03T09:06:37.854Z,45.98
2018-08-03T09:09:09.628Z,46.74
2018-08-03T09:11:39.217Z,44.30
2018-08-03T09:14:08.141Z,43.21
2018-08-03T09:16:37.098Z,44.54
2018-08-03T09:19:06.050Z,44.93
2018-08-03T09:21:34.974Z,46.24
2018-08-03T09:24:03.935Z,46.33
2018-08-03T09:26:33.492Z,48.11
2018-08-03T09:29:02.565Z,48.46
2018-08-03T09:31:31.489Z,45.89
2018-08-03T09:34:00.468Z,46.06
2018-08-03T09:36:29.453Z,45.37
2018-08-03T09:38:58.339Z,44.56
2018-08-03T09:41:27.257Z,42.97
2018-08-03T09:43:56.210Z,41.85
2018-08-03T09:46:25.296Z,40.92
2018-08-03T09:48:54.213Z,42.04
2018-08-03T09:51:23.194Z,41.82
2018-08-03T09:53:52.385Z,40.89
2018-08-03T09:56:21.319Z,41.94
2018-08-03T09:58:50.285Z,42.12
2018-08-03T10:01:19.211Z,42.35
2018-08-03T10:03:48.143Z,42.06
2018-08-03T10:06:17.108Z,40.61
2018-08-03T10:08:46.052Z,39.85
2018-08-03T10:11:15.860Z,38.51
2018-08-03T10:13:45.023Z,40.16
2018-08-03T10:16:13.946Z,40.91
2018-08-03T10:18:42.964Z,38.29
2018-08-03T10:21:12.044Z,38.85
2018-08-03T10:23:41.070Z,37.39
2018-08-03T10:26:10.025Z,36.98
2018-08-03T10:28:38.982Z,37.15
2018-08-03T10:31:11.890Z,39.31
2018-08-03T10:33:40.908Z,37.24
2018-08-03T10:36:10.440Z,37.95
2018-08-03T10:38:39.992Z,38.94
2018-08-03T10:41:08.980Z,38.46
2018-08-03T10:43:38.051Z,38.59
2018-08-03T10:46:06.991Z,37.22
2018-08-03T10:48:36.045Z,36.75
2018-08-03T10:51:05.010Z,36.58
2018-08-03T10:53:33.944Z,36.64
2018-08-03T10:56:02.919Z,37.80
2018-08-03T10:58:32.036Z,37.30
2018-08-03T11:01:00.987Z,36.38
2018-08-03T11:03:30.080Z,34.71
2018-08-03T11:05:59.102Z,37.84
2018-08-03T11:08:28.066Z,35.67
2018-08-03T11:10:57.085Z,35.42
2018-08-03T11:13:26.146Z,35.15
2018-08-03T11:15:55.075Z,34.80
2018-08-03T11:18:24.047Z,34.49
2018-08-03T11:20:53.058Z,33.87
2018-08-03T11:23:22.029Z,32.94
2018-08-03T11:25:51.027Z,33.95
2018-08-03T11:28:20.273Z,34.49
2018-08-03T11:30:49.198Z,32.62
2018-08-03T11:33:18.596Z,32.01
2018-08-03T11:35:47.656Z,32.67
2018-08-03T11:38:16.543Z,31.45
2018-08-03T11:40:45.593Z,32.09
2018-08-03T11:43:14.532Z,34.39
2018-08-03T11:45:43.494Z,32.57
2018-08-03T11:48:12.419Z,32.36
2018-08-03T11:50:41.454Z,32.93
2018-08-03T11:53:10.644Z,32.75
2018-08-03T12:07:06.042Z,30.65
2018-08-03T12:09:34.961Z,31.77
2018-08-03T12:12:03.904Z,34.52
2018-08-03T12:14:32.880Z,36.96
2018-08-03T12:17:01.845Z,37.76
2018-08-03T12:19:30.838Z,34.55
2018-08-03T12:21:59.774Z,34.34
2018-08-03T12:24:28.756Z,32.62
2018-08-03T12:26:57.704Z,33.54
2018-08-03T12:29:26.712Z,33.45
2018-08-03T12:31:55.644Z,32.00
2018-08-03T12:34:24.593Z,32.41
2018-08-03T12:36:53.527Z,32.67
2018-08-03T12:39:22.573Z,32.04
2018-08-03T12:41:51.675Z,33.53
2018-08-03T12:44:20.670Z,36.38
2018-08-03T12:46:49.598Z,35.23
2018-08-03T12:49:18.556Z,35.97
2018-08-03T12:51:47.588Z,35.28
2018-08-03T12:54:16.505Z,38.19
2018-08-03T12:56:45.636Z,38.39
2018-08-03T12:59:14.972Z,37.92
2018-08-03T13:01:44.093Z,38.71
2018-08-03T13:04:13.157Z,37.38
2018-08-03T13:06:42.467Z,34.23
2018-08-03T13:09:11.578Z,36.28
2018-08-03T13:11:41.150Z,34.29
2018-08-03T13:14:10.090Z,33.86
2018-08-03T13:16:39.886Z,31.96
2018-08-03T13:19:08.940Z,30.36
2018-08-03T13:21:39.668Z,30.81
2018-08-03T13:24:08.607Z,35.00
2018-08-03T13:26:37.599Z,32.33
2018-08-03T13:29:06.587Z,33.58
2018-08-03T13:31:35.586Z,34.09
2018-08-03T13:34:04.674Z,35.55
2018-08-03T13:36:33.687Z,36.14
2018-08-03T13:39:11.331Z,37.74
2018-08-03T13:41:41.299Z,35.55
2018-08-03T13:44:11.340Z,33.77
2018-08-03T13:46:40.383Z,32.48
2018-08-03T13:49:09.701Z,33.38
2018-08-03T13:51:38.738Z,31.20
2018-08-03T13:54:07.745Z,31.00
2018-08-03T13:56:36.768Z,31.04
2018-08-03T13:59:06.079Z,31.83
2018-08-03T14:01:43.744Z,30.97
2018-08-03T14:04:12.707Z,30.56
2018-08-03T14:06:41.609Z,31.14
2018-08-03T14:09:10.522Z,31.99
2018-08-03T14:11:39.462Z,32.33
2018-08-03T14:14:08.391Z,34.62
2018-08-03T14:16:37.378Z,35.90
2018-08-03T14:19:06.321Z,35.11
2018-08-03T14:21:35.258Z,35.24
2018-08-03T14:24:04.191Z,35.21
2018-08-03T14:26:33.106Z,33.77
2018-08-03T14:29:02.049Z,34.93
2018-08-03T14:31:31.073Z,33.57
2018-08-03T14:33:59.903Z,32.73
2018-08-03T14:36:28.868Z,30.95
2018-08-03T14:38:57.796Z,30.27
2018-08-03T14:41:26.699Z,30.05
2018-08-03T14:43:55.723Z,30.38
2018-08-03T14:46:24.766Z,31.59
2018-08-03T14:48:54.050Z,32.26
2018-08-03T14:51:22.996Z,31.58
2018-08-03T14:53:51.914Z,31.47
2018-08-03T14:56:20.872Z,32.86
2018-08-03T14:58:49.843Z,30.66
2018-08-03T15:01:18.797Z,29.99
2018-08-03T15:03:47.781Z,32.73
2018-08-03T15:06:16.757Z,31.79
2018-08-03T15:08:45.871Z,34.36
2018-08-03T15:11:14.846Z,33.87
2018-08-03T15:13:43.857Z,35.56
2018-08-03T15:16:12.812Z,37.05
2018-08-03T15:18:41.801Z,37.33
2018-08-03T15:21:10.753Z,35.46
2018-08-03T15:23:39.688Z,35.82
2018-08-03T15:26:08.634Z,35.83
2018-08-03T15:28:37.592Z,37.67
2018-08-03T15:31:06.572Z,35.13
2018-08-03T15:33:35.529Z,35.63
2018-08-03T15:36:04.474Z,36.24
2018-08-03T15:38:33.505Z,36.18
2018-08-03T15:41:02.473Z,36.71
2018-08-03T15:43:31.432Z,36.97
2018-08-03T15:46:00.347Z,36.18
2018-08-03T15:48:29.339Z,37.71
2018-08-03T15:50:58.316Z,37.31
2018-08-03T15:53:27.344Z,39.49
2018-08-03T15:55:56.373Z,37.70
2018-08-03T15:58:25.477Z,37.25
2018-08-03T16:00:54.499Z,36.69
2018-08-03T16:03:23.437Z,36.89
2018-08-03T16:05:52.393Z,37.58
2018-08-03T16:08:21.363Z,35.86
2018-08-03T16:10:50.409Z,35.70
2018-08-03T16:13:19.341Z,36.29
2018-08-03T16:15:48.268Z,35.17
2018-08-03T16:18:17.196Z,34.13
2018-08-03T16:20:46.211Z,34.21
2018-08-03T16:23:15.154Z,34.35
2018-08-03T16:25:44.126Z,33.34
2018-08-03T16:28:13.042Z,34.01
2018-08-03T16:30:42.046Z,34.01
2018-08-03T16:33:11.013Z,33.92
2018-08-03T16:35:39.958Z,34.13
2018-08-03T16:38:08.924Z,35.82
2018-08-03T16:40:38.235Z,35.98
2018-08-03T16:43:07.200Z,37.03
2018-08-03T16:45:36.197Z,35.46
2018-08-03T16:48:05.288Z,36.97
2018-08-03T16:50:34.232Z,35.98
2018-08-03T16:53:03.169Z,37.26
2018-08-03T16:55:32.188Z,35.32
2018-08-03T16:58:01.108Z,36.64
2018-08-03T17:00:30.088Z,35.80
2018-08-03T17:02:59.217Z,37.37
2018-08-03T17:05:28.148Z,37.16
2018-08-03T17:07:57.100Z,36.50
2018-08-03T17:10:26.093Z,37.47
2018-08-03T17:12:55.069Z,38.34
2018-08-03T17:15:23.974Z,37.10
2018-08-03T17:17:52.972Z,37.69
2018-08-03T17:20:21.968Z,38.94
2018-08-03T17:22:50.981Z,38.73
2018-08-03T17:25:19.916Z,39.33
2018-08-03T17:27:48.966Z,38.03
2018-08-03T17:30:17.969Z,37.84
2018-08-03T17:32:46.896Z,39.66
2018-08-03T17:35:15.816Z,38.75
2018-08-03T17:37:44.749Z,39.11
2018-08-03T17:40:13.659Z,39.37
2018-08-03T17:42:42.648Z,40.12
2018-08-03T17:45:11.554Z,39.49
2018-08-03T17:47:40.508Z,41.01
2018-08-03T17:50:09.647Z,40.10
2018-08-03T17:52:38.704Z,41.10
2018-08-03T17:55:07.739Z,41.39
2018-08-03T17:57:36.717Z,40.87
2018-08-03T18:00:06.108Z,42.89
2018-08-03T18:02:35.052Z,41.07
2018-08-03T18:05:03.988Z,41.69
2018-08-03T18:07:32.939Z,42.85
2018-08-03T18:10:01.908Z,42.24
2018-08-03T18:12:30.868Z,43.71
2018-08-03T18:14:59.796Z,43.58
2018-08-03T18:17:28.760Z,44.10
2018-08-03T18:19:57.856Z,44.65
2018-08-03T18:22:26.844Z,44.85
2018-08-03T18:25:00.621Z,43.57
2018-08-03T18:27:29.558Z,43.99
2018-08-03T18:29:58.556Z,43.89
2018-08-03T18:32:27.480Z,44.20
2018-08-03T18:34:56.499Z,43.86
2018-08-03T18:37:25.484Z,43.46
2018-08-03T18:39:54.829Z,44.04
2018-08-03T18:42:23.777Z,45.00
2018-08-03T18:44:52.748Z,43.88
2018-08-03T18:47:21.722Z,44.11
2018-08-03T18:49:50.679Z,44.29
2018-08-03T18:52:19.675Z,44.59
2018-08-03T18:54:48.594Z,44.62
2018-08-03T18:57:17.513Z,45.54
2018-08-03T18:59:46.432Z,45.31
2018-08-03T19:02:15.748Z,45.03
2018-08-03T19:04:44.697Z,45.48
2018-08-03T19:07:13.619Z,46.02
2018-08-03T19:09:42.542Z,46.28
2018-08-03T19:12:11.464Z,46.70
2018-08-03T19:14:40.392Z,45.86
2018-08-03T19:17:09.307Z,46.40
2018-08-03T19:19:38.216Z,45.27
2018-08-03T19:22:07.244Z,46.12
2018-08-03T19:24:36.109Z,46.31
2018-08-03T19:27:05.068Z,48.13
2018-08-03T19:29:33.973Z,48.19
2018-08-03T19:32:02.971Z,48.54
2018-08-03T19:34:31.922Z,49.51
2018-08-03T19:37:00.836Z,48.33
2018-08-03T19:39:29.740Z,49.45
2018-08-03T19:41:58.663Z,49.68
2018-08-03T19:44:27.598Z,48.61
2018-08-03T19:46:56.518Z,50.14
2018-08-03T19:49:25.461Z,49.90
2018-08-03T19:51:54.389Z,51.10
2018-08-03T19:54:23.326Z,49.85
2018-08-03T19:56:52.244Z,50.80
2018-08-03T19:59:21.192Z,52.08
2018-08-03T20:01:50.176Z,51.15
2018-08-03T20:04:19.088Z,51.28
2018-08-03T20:06:48.015Z,50.90
2018-08-03T20:09:17.041Z,50.62
2018-08-03T20:11:45.929Z,50.78
2018-08-03T20:14:14.841Z,51.56
2018-08-03T20:16:43.778Z,50.48
2018-08-03T20:19:12.800Z,49.87
2018-08-03T20:21:41.877Z,51.61
2018-08-03T20:24:10.785Z,50.31
2018-08-03T20:26:39.705Z,50.30
2018-08-03T20:29:08.644Z,49.58
2018-08-03T20:31:37.630Z,49.72
2018-08-03T20:34:06.898Z,48.96
2018-08-03T20:36:35.836Z,49.24
2018-08-03T20:39:07.488Z,49.37
2018-08-03T20:41:36.415Z,49.08
2018-08-03T20:44:05.328Z,49.00
2018-08-03T20:46:34.308Z,49.07
2018-08-03T20:49:03.298Z,50.22
2018-08-03T20:51:32.259Z,49.03
2018-08-03T20:54:01.208Z,50.42
2018-08-03T20:56:30.153Z,49.32
2018-08-03T20:58:59.146Z,48.81
2018-08-03T21:01:28.114Z,47.74
2018-08-03T21:03:57.060Z,47.06
2018-08-03T21:06:26.005Z,46.63
2018-08-03T21:08:54.952Z,47.07
2018-08-03T21:11:24.012Z,46.68
2018-08-03T21:13:52.949Z,47.48
2018-08-03T21:16:21.884Z,46.88
2018-08-03T21:18:50.807Z,47.46
2018-08-03T21:21:19.865Z,47.17
2018-08-03T21:23:48.831Z,47.39
2018-08-03T21:26:17.817Z,47.92
2018-08-03T21:28:46.738Z,48.62
2018-08-03T21:31:15.675Z,47.66
2018-08-03T21:33:44.641Z,48.14
2018-08-03T21:36:13.603Z,47.91
2018-08-03T21:38:42.628Z,48.20
2018-08-03T21:41:11.551Z,50.42
2018-08-03T21:43:40.517Z,49.63
2018-08-03T21:46:09.446Z,49.09
2018-08-03T21:48:38.395Z,48.82
2018-08-03T21:51:07.420Z,49.81
2018-08-03T21:53:37.153Z,49.93
2018-08-03T21:56:06.428Z,48.98
2018-08-03T21:58:35.374Z,49.59
2018-08-03T22:01:04.501Z,50.12
2018-08-03T22:03:33.550Z,49.14
2018-08-03T22:06:02.519Z,47.64
2018-08-03T22:08:31.464Z,47.87
2018-08-03T22:11:00.450Z,47.98
2018-08-03T22:13:29.404Z,48.74
2018-08-03T22:15:58.401Z,49.42
2018-08-03T22:18:28.421Z,47.53
2018-08-03T22:20:57.393Z,48.68
2018-08-03T22:23:26.333Z,49.80
2018-08-03T22:25:55.269Z,49.97
2018-08-03T22:28:24.203Z,49.81
2018-08-03T22:30:53.290Z,47.33
2018-08-03T22:33:22.264Z,48.46
2018-08-03T22:35:51.170Z,47.05
2018-08-03T22:38:20.100Z,47.21
2018-08-03T22:40:49.033Z,48.03
2018-08-03T22:43:17.942Z,48.02
2018-08-03T22:45:47.231Z,48.64
2018-08-03T22:48:16.781Z,49.58
2018-08-03T22:50:45.748Z,49.04
2018-08-03T22:53:15.597Z,49.39
2018-08-03T22:55:45.796Z,49.64
2018-08-03T22:58:14.745Z,49.96
2018-08-03T23:00:43.720Z,49.51
2018-08-03T23:03:12.682Z,48.56
2018-08-03T23:05:41.640Z,49.84
2018-08-03T23:08:10.752Z,52.75
2018-08-03T23:10:39.654Z,52.96
2018-08-03T23:13:08.605Z,52.65
2018-08-03T23:15:37.598Z,52.75
2018-08-03T23:18:06.623Z,53.77
2018-08-03T23:20:35.602Z,53.48
2018-08-03T23:23:04.541Z,54.13
2018-08-03T23:25:33.469Z,53.30
2018-08-03T23:28:02.390Z,53.51
2018-08-03T23:30:31.299Z,54.42
2018-08-03T23:33:00.264Z,55.13
2018-08-03T23:35:29.174Z,55.19
2018-08-03T23:37:58.157Z,54.77
2018-08-03T23:40:27.174Z,54.71
2018-08-03T23:42:56.111Z,54.53
2018-08-03T23:45:25.070Z,54.35
2018-08-03T23:47:54.038Z,54.63
2018-08-03T23:50:23.035Z,55.95
2018-08-03T23:52:51.963Z,55.42
2018-08-03T23:55:20.961Z,55.22
2018-08-03T23:57:49.929Z,55.29
